createdAt,value
2023-02-14T00:02:47.061Z,6.80
2023-02-14T00:07:50.175Z,6.80
2023-02-14T00:12:54.721Z,6.80
2023-02-14T00:17:59.777Z,6.80
2023-02-14T00:23:02.989Z,6.90
2023-02-14T00:28:07.821Z,6.80
2023-02-14T00:33:10.918Z,6.80
2023-02-14T00:38:14.024Z,6.70
2023-02-14T00:43:18.535Z,6.70
2023-02-14T00:48:21.673Z,6.70
2023-02-14T00:53:24.838Z,6.60
2023-02-14T00:58:29.363Z,6.50
2023-02-14T01:03:32.834Z,6.50
2023-02-14T01:08:36.120Z,6.50
2023-02-14T01:13:40.731Z,6.50
2023-02-14T01:18:44.647Z,6.40
2023-02-14T01:23:49.004Z,6.40
2023-02-14T01:28:53.569Z,6.40
2023-02-14T01:33:57.098Z,6.30
2023-02-14T01:39:02.380Z,6.30
2023-02-14T01:44:28.866Z,6.30
2023-02-14T01:49:36.108Z,6.20
2023-02-14T01:54:44.948Z,6.20
2023-02-14T01:59:53.653Z,6.20
2023-02-14T02:04:57.685Z,6.10
2023-02-14T02:10:04.072Z,6.10
2023-02-14T02:15:09.573Z,6.00
2023-02-14T02:20:40.983Z,6.00
2023-02-14T02:26:11.586Z,6.00
2023-02-14T02:31:39.089Z,6.00
2023-02-14T02:36:59.106Z,5.90
2023-02-14T02:42:11.786Z,5.80
2023-02-14T02:47:23.129Z,5.80
2023-02-14T02:52:49.972Z,5.80
2023-02-14T02:57:54.922Z,5.80
2023-02-14T03:03:16.547Z,5.80
2023-02-14T03:08:20.990Z,5.80
2023-02-14T03:13:44.453Z,5.80
2023-02-14T03:19:09.441Z,5.80
2023-02-14T03:24:26.334Z,5.80
2023-02-14T03:29:34.042Z,5.80
2023-02-14T03:34:46.456Z,5.80
2023-02-14T03:40:00.308Z,5.80
2023-02-14T03:45:06.249Z,5.80
2023-02-14T03:50:14.890Z,5.80
2023-02-14T03:55:25.675Z,5.80
2023-02-14T04:00:31.470Z,5.80
2023-02-14T04:05:35.004Z,5.80
2023-02-14T04:10:41.962Z,5.90
2023-02-14T04:15:45.125Z,5.90
2023-02-14T04:20:48.280Z,5.90
2023-02-14T04:25:52.811Z,5.90
2023-02-14T04:30:56.047Z,5.90
2023-02-14T04:35:59.186Z,5.80
2023-02-14T04:41:03.759Z,5.80
2023-02-14T04:46:06.901Z,5.80
2023-02-14T04:51:10.094Z,5.70
2023-02-14T04:56:35.640Z,5.80
2023-02-14T05:01:38.830Z,5.80
2023-02-14T05:06:41.926Z,5.80
2023-02-14T05:11:46.364Z,5.70
2023-02-14T05:16:49.617Z,5.70
2023-02-14T05:21:53.118Z,5.60
2023-02-14T05:26:57.582Z,5.60
2023-02-14T05:32:00.736Z,5.60
2023-02-14T05:37:03.990Z,5.60
2023-02-14T05:47:12.945Z,5.50
2023-02-14T05:52:16.221Z,5.50
2023-02-14T05:57:20.752Z,5.50
2023-02-14T06:02:23.839Z,5.40
2023-02-14T06:07:26.967Z,5.40
2023-02-14T06:12:31.456Z,5.30
2023-02-14T06:17:34.603Z,5.10
2023-02-14T06:22:38.277Z,5.10
2023-02-14T06:27:42.987Z,5.00
2023-02-14T06:32:46.379Z,5.10
2023-02-14T06:37:50.950Z,5.10
2023-02-14T06:42:55.467Z,5.20
2023-02-14T06:48:00.110Z,5.20
2023-02-14T06:53:03.590Z,5.20
2023-02-14T06:58:08.114Z,5.10
2023-02-14T07:03:11.613Z,5.00
2023-02-14T07:08:14.840Z,5.00
2023-02-14T07:13:19.387Z,4.90
2023-02-14T07:18:22.524Z,5.00
2023-02-14T07:23:25.603Z,5.00
2023-02-14T07:28:31.395Z,5.00
2023-02-14T07:33:34.587Z,5.00
2023-02-14T07:38:38.003Z,5.00
2023-02-14T07:43:42.755Z,5.00
2023-02-14T07:48:45.954Z,4.90
2023-02-14T07:53:49.362Z,4.90
2023-02-14T07:58:54.002Z,4.90
2023-02-14T08:03:57.120Z,4.90
2023-02-14T08:09:00.232Z,4.80
2023-02-14T08:14:05.591Z,4.80
2023-02-14T08:19:08.720Z,4.70
2023-02-14T08:24:12.023Z,4.60
2023-02-14T08:29:16.937Z,4.50
2023-02-14T08:34:20.199Z,4.50
2023-02-14T08:39:23.458Z,4.60
2023-02-14T08:44:28.229Z,4.60
2023-02-14T08:49:31.339Z,4.60
2023-02-14T08:54:34.613Z,4.70
2023-02-14T08:59:39.120Z,4.80
2023-02-14T09:04:42.224Z,4.80
2023-02-14T09:09:45.349Z,4.80
2023-02-14T09:14:49.886Z,4.80
2023-02-14T09:19:53.067Z,4.80
2023-02-14T09:24:56.165Z,4.80
2023-02-14T09:30:00.836Z,4.80
2023-02-14T09:35:04.109Z,4.80
2023-02-14T09:40:08.393Z,4.80
2023-02-14T09:45:16.049Z,4.80
2023-02-14T09:50:25.311Z,4.70
2023-02-14T09:55:35.425Z,4.70
2023-02-14T10:00:45.487Z,4.70
2023-02-14T10:05:55.966Z,4.60
2023-02-14T10:11:20.495Z,4.60
2023-02-14T10:16:27.479Z,4.70
2023-02-14T10:21:34.707Z,4.80
2023-02-14T10:26:41.315Z,4.90
2023-02-14T10:31:55.803Z,5.10
2023-02-14T10:37:19.956Z,5.20
2023-02-14T10:42:32.938Z,5.20
2023-02-14T10:47:43.659Z,5.30
2023-02-14T10:52:57.331Z,5.30
2023-02-14T10:58:02.737Z,5.40
2023-02-14T11:03:11.016Z,5.50
2023-02-14T11:08:23.215Z,5.50
2023-02-14T11:13:36.109Z,5.50
2023-02-14T11:18:41.642Z,5.60
2023-02-14T11:23:46.129Z,5.70
2023-02-14T11:28:56.795Z,5.70
2023-02-14T11:34:04.808Z,5.80
2023-02-14T11:39:22.638Z,5.90
2023-02-14T11:44:28.416Z,5.90
2023-02-14T11:49:35.309Z,5.80
2023-02-14T11:54:40.382Z,5.80
2023-02-14T11:59:46.448Z,5.80
2023-02-14T12:04:54.202Z,5.80
2023-02-14T12:10:18.740Z,5.80
2023-02-14T12:15:29.149Z,5.90
2023-02-14T12:20:41.967Z,6.00
2023-02-14T12:25:51.103Z,6.10
2023-02-14T12:30:54.700Z,6.10
2023-02-14T12:36:07.981Z,6.10
2023-02-14T12:41:26.194Z,6.10
2023-02-14T12:46:49.360Z,6.30
2023-02-14T12:52:03.317Z,6.30
2023-02-14T12:57:17.148Z,6.40
2023-02-14T13:03:08.598Z,6.50
2023-02-14T13:08:26.312Z,6.50
2023-02-14T13:13:38.657Z,6.60
2023-02-14T13:18:50.942Z,6.60
2023-02-14T13:23:59.200Z,6.70
2023-02-14T13:29:05.546Z,6.70
2023-02-14T13:34:14.853Z,6.80
2023-02-14T13:39:26.085Z,6.80
2023-02-14T13:44:44.434Z,6.90
2023-02-14T13:49:51.480Z,6.90
2023-02-14T13:55:04.492Z,6.80
2023-02-14T14:00:39.118Z,6.70
2023-02-14T14:05:59.263Z,6.80
2023-02-14T14:11:07.001Z,6.80
2023-02-14T14:16:29.726Z,6.80
2023-02-14T14:21:34.814Z,6.70
2023-02-14T14:26:41.974Z,6.70
2023-02-14T14:31:46.685Z,6.70
2023-02-14T14:36:49.940Z,6.80
2023-02-14T14:41:54.483Z,6.90
2023-02-14T14:47:00.483Z,7.00
2023-02-14T14:52:03.694Z,7.10
2023-02-14T14:57:08.323Z,7.20
2023-02-14T15:02:26.362Z,7.20
2023-02-14T15:07:33.659Z,7.30
2023-02-14T15:12:55.776Z,7.30
2023-02-14T15:17:59.036Z,7.30
2023-02-14T15:23:02.978Z,7.30
2023-02-14T15:28:07.511Z,7.20
2023-02-14T15:33:12.703Z,7.00
2023-02-14T15:38:16.632Z,6.90
2023-02-14T15:43:30.811Z,6.80
2023-02-14T15:48:35.164Z,6.80
2023-02-14T15:53:41.938Z,6.80
2023-02-14T15:58:46.983Z,6.80
2023-02-14T16:03:53.480Z,6.70
2023-02-14T16:08:58.045Z,6.60
2023-02-14T16:14:22.253Z,6.60
2023-02-14T16:19:41.494Z,6.70
2023-02-14T16:24:44.597Z,6.70
2023-02-14T16:29:49.197Z,6.70
2023-02-14T16:34:52.521Z,6.70
2023-02-14T16:39:57.700Z,6.70
2023-02-14T16:45:02.390Z,6.70
2023-02-14T16:50:05.754Z,6.70
2023-02-14T16:55:16.727Z,6.70
2023-02-14T17:00:22.683Z,6.60
2023-02-14T17:05:28.147Z,6.60
2023-02-14T17:10:34.674Z,6.60
2023-02-14T17:15:40.266Z,6.50
2023-02-14T17:20:43.730Z,6.30
2023-02-14T17:25:46.817Z,6.10
2023-02-14T17:30:51.347Z,6.00
2023-02-14T17:35:54.475Z,6.00
2023-02-14T17:40:57.630Z,6.00
2023-02-14T17:46:05.492Z,6.10
2023-02-14T17:51:10.609Z,6.10
2023-02-14T17:56:17.957Z,6.10
2023-02-14T18:01:23.848Z,6.10
2023-02-14T18:06:27.080Z,6.10
2023-02-14T18:11:31.060Z,6.10
2023-02-14T18:16:39.332Z,6.00
2023-02-14T18:21:43.357Z,6.00
2023-02-14T18:26:49.594Z,5.80
2023-02-14T18:31:54.148Z,5.70
2023-02-14T18:36:57.279Z,5.60
2023-02-14T18:42:01.154Z,5.50
2023-02-14T18:47:06.872Z,5.40
2023-02-14T18:52:10.430Z,5.40
2023-02-14T18:57:13.729Z,5.30
2023-02-14T19:02:18.406Z,5.20
2023-02-14T19:07:21.527Z,5.20
2023-02-14T19:12:25.130Z,5.20
2023-02-14T19:17:29.644Z,5.20
2023-02-14T19:22:33.036Z,5.10
2023-02-14T19:27:37.026Z,5.00
2023-02-14T19:32:41.487Z,5.00
2023-02-14T19:37:44.603Z,4.90
2023-02-14T19:42:47.822Z,5.00
2023-02-14T19:47:53.098Z,4.90
2023-02-14T19:52:56.254Z,4.90
2023-02-14T19:57:59.370Z,4.90
2023-02-14T20:03:06.138Z,4.80
2023-02-14T20:08:09.266Z,4.80
2023-02-14T20:13:12.466Z,4.70
2023-02-14T20:18:18.001Z,4.80
2023-02-14T20:23:21.309Z,4.80
2023-02-14T20:28:24.581Z,4.80
2023-02-14T20:33:29.220Z,4.70
2023-02-14T20:38:32.495Z,4.70
2023-02-14T20:43:36.180Z,4.50
2023-02-14T20:48:40.879Z,4.40
2023-02-14T20:53:45.184Z,4.30
2023-02-14T20:58:48.540Z,4.30
2023-02-14T21:03:54.507Z,4.40
2023-02-14T21:08:58.625Z,4.40
2023-02-14T21:14:02.810Z,4.50
2023-02-14T21:19:07.281Z,4.60
2023-02-14T21:24:12.068Z,4.60
2023-02-14T21:29:15.357Z,4.70
2023-02-14T21:34:20.496Z,4.60
2023-02-14T21:39:25.760Z,4.70
2023-02-14T21:44:46.083Z,4.60
2023-02-14T21:50:07.872Z,4.60
2023-02-14T21:55:11.097Z,4.60
2023-02-14T22:00:14.747Z,4.60
2023-02-14T22:05:19.421Z,4.70
2023-02-14T22:10:22.589Z,4.70
2023-02-14T22:15:25.808Z,4.70
2023-02-14T22:20:30.524Z,4.70
2023-02-14T22:25:33.659Z,4.60
2023-02-14T22:30:36.819Z,4.50
2023-02-14T22:35:41.353Z,4.40
2023-02-14T22:40:44.465Z,4.40
2023-02-14T22:45:47.575Z,4.40
2023-02-14T22:50:52.044Z,4.50
2023-02-14T22:55:55.138Z,4.60
2023-02-14T23:00:58.351Z,4.60
2023-02-14T23:06:03.193Z,4.60
2023-02-14T23:11:10.885Z,4.60
2023-02-14T23:16:31.362Z,4.60
2023-02-14T23:21:53.066Z,4.50
2023-02-14T23:26:56.714Z,4.50
2023-02-14T23:31:59.948Z,4.40
2023-02-14T23:37:05.370Z,4.50
2023-02-14T23:42:11.593Z,4.40
2023-02-14T23:47:15.975Z,4.60
2023-02-14T23:52:20.453Z,4.50
2023-02-14T23:57:23.644Z,4.50
